Sylmar, CA (91342)

11:23 AM PDT on August 28, 2015 (GMT -0700)
Fenton | | Change Station
CLOSE
Current Station
Personal Weather Station
Location: Los Angeles, CA
Elevation: 1512 ft
Nearby Weather Stations

Elev 1512 ft 34.32 °N, 118.43 °W | Updated 24 seconds ago

Clear
Clear
95.2 °F
Feels Like 92 °F
N
0.0
Wind Variable Wind from NNW
Gusts 0.0 mph

Today
High -- | Low -- °F
--% Chance of Precip.
Yesterday
High -- | Low -- °F
Precip. -- in
6:24 AM 7:25 PM
Waxing Gibbous, 98% visible
Pressure 29.97 in
Visibility 15.0 miles
Clouds Clear
Heat Index 92 °F
Dew Point 49 °F
Humidity 21%
Rainfall 0.00 in
Snow Depth Not available.
UV 5.0 out of 12
Pollen 6.50 out of 12
Air Quality Not available.
Flu Activity Not available.
METAR KWHP 281647Z 00000KT 15SM SKC 30/12 A2997
Pressure 29.97 in
Visibility 15.0 miles
Clouds Clear
Heat Index 92 °F
Dew Point 49 °F
Humidity 21%
Rainfall 0.00 in
Snow Depth Not available.
UV 5.0 out of 12
Pollen 6.50 out of 12
Air Quality Not available.
Flu Activity Not available.
METAR KWHP 281647Z 00000KT 15SM SKC 30/12 A2997

10-Day Weather Forecast

×

Almanac

Astronomy

Aug. 28, 2015 Rise Set
Actual Time
Civil Twilight
Nautical Twilight
Astronomical Twilight
Moon
Length of Visible Light
Length of Day
Tomorrow will be .
, % of the Moon is Illuminated

Today's Extremes

State Highs State Lows

Community

WunderPhotos

Upload Photos

1,850,453 photos uploaded!

WunderBlogs® & News

Nearby

Air Quality

  Air Quality AQ Index Pollutant
Not available.

Snow Depth

Station Depth Elevation

Earthquake Activity

City Distance Mag. Time & Date
Minimum magnitude displayed is 2.5.

Coastal Water Temperatures

Place Temperature

Stations

Nearby Weather Stations

Station Location Temp. Windchill Dew Point Humidity Wind Precip. Elev Updated Type